createdAt,value
2023-01-23T00:01:26.741Z,51.78
2023-01-23T00:03:55.472Z,55.88
2023-01-23T00:06:23.717Z,53.78
2023-01-23T00:08:51.327Z,58.80
2023-01-23T00:11:24.398Z,64.03
2023-01-23T00:13:52.675Z,55.33
2023-01-23T00:16:22.748Z,57.38
2023-01-23T00:18:51.235Z,52.13
2023-01-23T00:21:21.820Z,55.78
2023-01-23T00:23:52.805Z,53.50
2023-01-23T00:26:24.393Z,53.60
2023-01-23T00:28:53.114Z,51.90
2023-01-23T00:31:24.908Z,53.70
2023-01-23T00:33:58.230Z,62.78
2023-01-23T00:36:30.509Z,54.60
2023-01-23T00:38:58.293Z,54.30
2023-01-23T00:41:26.010Z,51.17
2023-01-23T00:43:54.311Z,48.95
2023-01-23T00:46:22.707Z,51.70
2023-01-23T00:48:50.986Z,44.90
2023-01-23T00:51:19.368Z,45.25
2023-01-23T00:53:47.362Z,43.47
2023-01-23T00:58:44.811Z,47.55
2023-01-23T01:01:14.260Z,44.78
2023-01-23T01:03:43.018Z,43.95
2023-01-23T01:06:12.507Z,42.08
2023-01-23T01:08:40.563Z,41.15
2023-01-23T01:11:08.601Z,38.85
2023-01-23T01:13:36.847Z,39.35
2023-01-23T01:16:04.930Z,39.22
2023-01-23T01:18:32.871Z,40.67
2023-01-23T01:21:00.723Z,36.25
2023-01-23T01:25:59.772Z,34.95
2023-01-23T01:28:30.309Z,36.85
2023-01-23T01:30:58.755Z,40.53
2023-01-23T01:33:28.536Z,29.48
2023-01-23T01:35:56.986Z,35.08
2023-01-23T01:38:24.752Z,31.55
2023-01-23T01:40:52.269Z,36.95
2023-01-23T01:43:25.276Z,31.20
2023-01-23T01:46:21.368Z,37.22
2023-01-23T01:48:52.048Z,33.30
2023-01-23T01:51:29.786Z,34.25
2023-01-23T01:54:03.464Z,37.25
2023-01-23T01:56:35.995Z,32.88
2023-01-23T01:59:04.606Z,31.17
2023-01-23T02:01:32.788Z,38.80
2023-01-23T02:04:04.915Z,31.80
2023-01-23T02:06:32.737Z,32.67
2023-01-23T02:09:17.563Z,40.10
2023-01-23T02:11:47.218Z,34.80
2023-01-23T02:14:14.730Z,39.10
2023-01-23T02:16:50.481Z,38.58
2023-01-23T02:19:55.580Z,35.88
2023-01-23T02:22:35.563Z,34.90
2023-01-23T02:25:26.989Z,29.35
2023-01-23T02:27:54.582Z,32.30
2023-01-23T02:30:23.182Z,33.95
2023-01-23T02:32:53.195Z,37.15
2023-01-23T02:35:29.393Z,42.08
2023-01-23T02:38:04.931Z,37.17
2023-01-23T02:40:38.711Z,35.65
2023-01-23T02:43:12.426Z,32.42
2023-01-23T02:45:45.579Z,32.30
2023-01-23T02:48:15.115Z,27.92
2023-01-23T02:53:12.900Z,33.72
2023-01-23T02:55:43.351Z,29.92
2023-01-23T02:58:30.201Z,29.33
2023-01-23T03:00:58.074Z,32.50
2023-01-23T03:03:25.856Z,32.47
2023-01-23T03:08:22.910Z,27.08
2023-01-23T03:10:51.317Z,32.72
2023-01-23T03:13:18.746Z,33.40
2023-01-23T03:15:50.125Z,30.33
2023-01-23T03:18:17.731Z,35.88
2023-01-23T03:20:45.479Z,32.50
2023-01-23T03:23:14.627Z,33.45
2023-01-23T03:25:47.081Z,33.20
2023-01-23T03:28:33.172Z,32.05
2023-01-23T03:31:01.049Z,34.53
2023-01-23T03:33:28.549Z,31.95
2023-01-23T03:35:56.006Z,30.63
2023-01-23T03:38:23.526Z,34.28
2023-01-23T03:41:10.083Z,27.17
2023-01-23T03:43:38.016Z,38.15
2023-01-23T03:46:06.598Z,37.03
2023-01-23T03:48:36.044Z,37.15
2023-01-23T03:51:04.616Z,38.47
2023-01-23T03:53:33.686Z,31.88
2023-01-23T03:56:02.239Z,30.20
2023-01-23T03:58:30.866Z,30.77
2023-01-23T04:00:58.489Z,31.30
2023-01-23T04:03:27.918Z,31.33
2023-01-23T04:05:57.459Z,32.22
2023-01-23T04:08:25.869Z,29.30
2023-01-23T04:11:09.464Z,31.35
2023-01-23T04:13:37.412Z,33.05
2023-01-23T04:16:05.761Z,32.17
2023-01-23T04:18:33.767Z,27.98
2023-01-23T04:23:30.684Z,30.17
2023-01-23T04:25:58.335Z,33.90
2023-01-23T04:28:26.051Z,30.65
2023-01-23T04:30:54.678Z,31.95
2023-01-23T04:33:28.864Z,38.92
2023-01-23T04:36:01.803Z,35.75
2023-01-23T04:38:31.182Z,33.63
2023-01-23T04:41:19.666Z,35.95
2023-01-23T04:43:48.132Z,32.78
2023-01-23T04:46:16.480Z,33.10
2023-01-23T04:49:06.714Z,31.95
2023-01-23T04:51:37.081Z,33.47
2023-01-23T04:54:04.955Z,33.63
2023-01-23T04:56:33.249Z,37.33
2023-01-23T04:59:04.090Z,34.88
2023-01-23T05:01:31.748Z,34.80
2023-01-23T05:04:02.938Z,34.60
2023-01-23T05:06:31.064Z,37.25
2023-01-23T05:08:59.862Z,36.45
2023-01-23T05:11:34.547Z,35.78
2023-01-23T05:16:31.553Z,37.17
2023-01-23T05:19:17.536Z,37.85
2023-01-23T05:21:45.571Z,36.70
2023-01-23T05:24:17.189Z,41.45
2023-01-23T05:26:45.830Z,31.20
2023-01-23T05:29:14.219Z,35.33
2023-01-23T05:31:51.418Z,31.30
2023-01-23T05:34:48.031Z,32.70
2023-01-23T05:37:25.314Z,34.78
2023-01-23T05:39:56.156Z,33.65
2023-01-23T05:42:24.797Z,34.95
2023-01-23T05:47:42.795Z,33.88
2023-01-23T05:50:16.875Z,33.75
2023-01-23T05:52:45.537Z,34.13
2023-01-23T05:55:13.213Z,38.22
2023-01-23T05:57:42.111Z,34.72
2023-01-23T06:00:28.168Z,39.97
2023-01-23T06:03:16.064Z,41.67
2023-01-23T06:05:51.589Z,43.45
2023-01-23T06:08:20.477Z,44.85
2023-01-23T06:10:48.045Z,35.00
2023-01-23T06:13:16.728Z,38.15
2023-01-23T06:15:44.469Z,38.85
2023-01-23T06:18:13.321Z,39.17
2023-01-23T06:20:41.193Z,37.05
2023-01-23T06:23:09.320Z,41.47
2023-01-23T06:25:38.164Z,35.58
2023-01-23T06:28:09.113Z,38.95
2023-01-23T06:30:37.716Z,44.72
2023-01-23T06:33:11.091Z,38.95
2023-01-23T06:35:41.939Z,41.20
2023-01-23T06:38:09.510Z,40.20
2023-01-23T06:40:37.280Z,47.58
2023-01-23T06:43:23.460Z,40.45
2023-01-23T06:45:51.490Z,42.13
2023-01-23T06:48:20.899Z,40.53
2023-01-23T06:50:49.149Z,40.47
2023-01-23T06:53:17.530Z,43.45
2023-01-23T06:55:46.169Z,42.85
2023-01-23T06:58:15.332Z,44.97
2023-01-23T07:00:44.556Z,40.20
2023-01-23T07:05:48.742Z,42.60
2023-01-23T07:08:16.552Z,38.97
2023-01-23T07:13:12.625Z,37.15
2023-01-23T07:15:41.176Z,40.22
2023-01-23T07:18:09.956Z,42.15
2023-01-23T07:20:38.341Z,45.35
2023-01-23T07:23:05.923Z,47.38
2023-01-23T07:25:33.444Z,45.13
2023-01-23T07:28:00.907Z,44.05
2023-01-23T07:30:29.226Z,46.72
2023-01-23T07:32:59.306Z,43.55
2023-01-23T07:35:29.423Z,45.80
2023-01-23T07:37:57.152Z,43.63
2023-01-23T07:40:24.981Z,45.78
2023-01-23T07:42:56.885Z,48.60
2023-01-23T07:45:24.444Z,42.92
2023-01-23T07:47:51.920Z,46.05
2023-01-23T07:50:19.639Z,45.53
2023-01-23T07:52:47.282Z,42.65
2023-01-23T07:55:16.066Z,39.45
2023-01-23T07:57:43.565Z,43.72
2023-01-23T08:00:16.063Z,49.95
2023-01-23T08:02:47.177Z,42.97
2023-01-23T08:05:14.832Z,49.00
2023-01-23T08:07:46.866Z,52.38
2023-01-23T08:10:14.592Z,56.15
2023-01-23T08:12:42.098Z,50.47
2023-01-23T08:15:09.897Z,53.65
2023-01-23T08:17:37.467Z,52.40
2023-01-23T08:20:05.387Z,48.15
2023-01-23T08:25:00.951Z,49.33
2023-01-23T08:27:28.437Z,52.03
2023-01-23T08:29:55.916Z,45.70
2023-01-23T08:32:23.398Z,48.83
2023-01-23T08:34:51.323Z,51.50
2023-01-23T08:37:18.773Z,53.63
2023-01-23T08:39:46.531Z,47.88
2023-01-23T08:42:13.986Z,48.13
2023-01-23T08:44:41.851Z,49.88
2023-01-23T08:47:11.646Z,53.65
2023-01-23T08:49:39.126Z,45.83
2023-01-23T08:52:06.668Z,69.45
2023-01-23T08:54:35.654Z,47.60
2023-01-23T09:05:50.770Z,47.67
2023-01-23T09:08:18.279Z,50.78
2023-01-23T09:10:45.826Z,57.47
2023-01-23T09:13:13.252Z,54.60
2023-01-23T09:15:40.893Z,53.67
2023-01-23T09:18:08.391Z,54.38
2023-01-23T09:20:37.396Z,61.10
2023-01-23T09:23:04.953Z,57.60
2023-01-23T09:25:32.533Z,55.03
2023-01-23T09:28:00.028Z,59.28
2023-01-23T09:30:27.679Z,57.78
2023-01-23T09:32:55.179Z,60.78
2023-01-23T09:35:23.477Z,54.75
2023-01-23T09:38:00.610Z,59.08
2023-01-23T09:40:29.367Z,47.42
2023-01-23T09:43:02.538Z,48.20
2023-01-23T09:45:31.569Z,52.95
2023-01-23T09:48:20.874Z,55.65
2023-01-23T09:51:17.384Z,61.78
2023-01-23T09:53:44.988Z,56.60
2023-01-23T09:56:35.236Z,54.10
2023-01-23T09:59:15.128Z,59.42
2023-01-23T10:01:58.365Z,63.90
2023-01-23T10:04:39.823Z,82.40
2023-01-23T10:15:15.468Z,119.63
2023-01-23T10:18:00.285Z,117.07
2023-01-23T10:20:50.724Z,139.30
2023-01-23T10:23:30.490Z,135.48
2023-01-23T10:25:59.861Z,140.60
2023-01-23T10:28:38.026Z,132.95
2023-01-23T10:31:24.597Z,129.13
2023-01-23T10:34:05.396Z,130.90
2023-01-23T10:36:54.113Z,117.28
2023-01-23T10:39:44.044Z,117.05
2023-01-23T10:42:13.500Z,118.70
2023-01-23T10:44:40.893Z,110.38
2023-01-23T10:47:50.013Z,113.95
2023-01-23T10:50:48.138Z,100.50
2023-01-23T10:53:20.347Z,103.97
2023-01-23T10:55:50.741Z,103.30
2023-01-23T10:58:37.590Z,97.82
2023-01-23T11:01:09.577Z,90.90
2023-01-23T11:03:37.306Z,88.38
2023-01-23T11:06:09.066Z,88.75
2023-01-23T11:08:39.325Z,83.45
2023-01-23T11:11:15.745Z,86.63
2023-01-23T11:13:45.204Z,90.35
2023-01-23T11:16:23.517Z,88.07
2023-01-23T11:19:11.429Z,79.20
2023-01-23T11:21:55.264Z,80.57
2023-01-23T11:24:38.508Z,78.13
2023-01-23T11:27:26.503Z,83.53
2023-01-23T11:30:09.293Z,85.68
2023-01-23T11:32:56.402Z,79.97
2023-01-23T11:35:38.133Z,79.95
2023-01-23T11:38:06.023Z,79.28
2023-01-23T11:40:33.501Z,78.55
2023-01-23T11:43:00.932Z,81.88
2023-01-23T11:45:47.358Z,77.30
2023-01-23T11:48:32.346Z,79.47
2023-01-23T11:51:32.013Z,70.05
2023-01-23T11:54:22.202Z,72.20
2023-01-23T11:57:16.211Z,66.35
2023-01-23T11:59:53.023Z,66.38
2023-01-23T12:02:41.786Z,66.63
2023-01-23T12:05:24.950Z,65.03
2023-01-23T12:08:19.679Z,68.18
2023-01-23T12:10:51.057Z,64.53
2023-01-23T12:13:37.991Z,70.22
2023-01-23T12:16:24.791Z,69.72
2023-01-23T12:19:21.377Z,65.50
2023-01-23T12:21:51.777Z,64.00
2023-01-23T12:24:37.809Z,67.15
2023-01-23T12:27:16.738Z,63.83
2023-01-23T12:30:15.213Z,57.22
2023-01-23T12:33:06.617Z,53.78
2023-01-23T12:35:55.924Z,59.10
2023-01-23T12:38:25.391Z,51.42
2023-01-23T12:40:59.196Z,46.33
2023-01-23T12:44:04.353Z,47.42
2023-01-23T12:46:41.120Z,47.05
2023-01-23T12:49:23.704Z,39.65
2023-01-23T12:51:57.535Z,41.10
2023-01-23T12:54:38.261Z,43.70
2023-01-23T12:57:08.155Z,44.70
2023-01-23T12:59:47.666Z,41.85
2023-01-23T13:02:33.878Z,43.17
2023-01-23T13:05:15.671Z,44.50
2023-01-23T13:07:58.313Z,36.38
2023-01-23T13:11:01.692Z,45.00
2023-01-23T13:13:30.094Z,48.47
2023-01-23T13:16:17.906Z,50.38
2023-01-23T13:19:18.692Z,54.33
2023-01-23T13:22:05.883Z,57.55
2023-01-23T13:25:03.093Z,59.90
2023-01-23T13:27:59.475Z,55.20
2023-01-23T13:30:26.961Z,59.30
2023-01-23T13:33:00.580Z,58.20
2023-01-23T13:35:42.693Z,55.67
2023-01-23T13:38:38.833Z,58.63
2023-01-23T13:41:11.364Z,58.78
2023-01-23T13:43:44.326Z,58.35
2023-01-23T14:22:11.181Z,54.15
2023-01-23T14:24:52.693Z,53.40
2023-01-23T14:27:51.460Z,48.40
2023-01-23T14:30:26.237Z,49.33
2023-01-23T14:32:53.878Z,47.15
2023-01-23T14:35:29.686Z,52.67
2023-01-23T14:38:06.514Z,48.08
2023-01-23T14:40:48.966Z,46.55
2023-01-23T14:43:21.901Z,47.67
2023-01-23T14:46:01.981Z,52.47
2023-01-23T14:48:34.888Z,48.35
2023-01-23T14:51:17.331Z,52.92
2023-01-23T14:53:58.190Z,50.25
2023-01-23T14:56:37.744Z,47.33
2023-01-23T14:59:36.529Z,47.15
2023-01-23T15:02:34.968Z,48.85
2023-01-23T15:05:23.801Z,47.65
2023-01-23T15:08:10.233Z,47.00
2023-01-23T15:10:50.500Z,44.38
2023-01-23T15:13:22.529Z,47.80
2023-01-23T15:15:56.957Z,50.97
2023-01-23T15:18:29.575Z,49.50
2023-01-23T15:21:06.286Z,44.60
2023-01-23T15:23:41.886Z,41.63
2023-01-23T15:26:15.165Z,47.83
2023-01-23T15:28:53.061Z,32.35
2023-01-23T15:31:24.563Z,36.28
2023-01-23T15:33:52.311Z,39.45
2023-01-23T15:36:28.643Z,29.95
2023-01-23T15:38:58.433Z,34.75
2023-01-23T15:41:50.890Z,35.25
2023-01-23T15:44:21.912Z,34.30
2023-01-23T15:46:49.476Z,37.65
2023-01-23T15:49:25.345Z,37.80
2023-01-23T15:51:56.382Z,38.58
2023-01-23T15:54:28.729Z,37.70
2023-01-23T15:57:06.639Z,38.75
2023-01-23T15:59:36.189Z,34.75
2023-01-23T16:02:04.775Z,40.95
2023-01-23T16:04:32.719Z,37.70
2023-01-23T16:07:04.891Z,38.42
2023-01-23T16:09:35.643Z,41.47
2023-01-23T16:12:08.035Z,46.38
2023-01-23T16:14:36.482Z,47.22
2023-01-23T16:17:15.873Z,47.53
2023-01-23T16:19:44.367Z,48.85
2023-01-23T16:22:22.606Z,45.92
2023-01-23T16:24:50.323Z,48.58
2023-01-23T16:27:19.875Z,47.60
2023-01-23T16:29:49.432Z,47.95
2023-01-23T16:32:17.445Z,44.85
2023-01-23T16:37:17.639Z,52.28
2023-01-23T16:39:46.355Z,42.55
2023-01-23T16:42:20.943Z,59.08
2023-01-23T16:44:49.078Z,57.25
2023-01-23T16:47:16.684Z,85.78
2023-01-23T16:49:52.043Z,87.32
2023-01-23T16:52:22.194Z,82.75
2023-01-23T16:54:52.413Z,81.57
2023-01-23T16:57:21.267Z,81.95
2023-01-23T16:59:50.016Z,74.28
2023-01-23T17:02:25.941Z,75.50
2023-01-23T17:04:53.508Z,81.20
2023-01-23T17:07:21.200Z,75.70
2023-01-23T17:09:49.331Z,71.95
2023-01-23T17:12:28.228Z,74.65
2023-01-23T17:14:56.369Z,75.72
2023-01-23T17:17:33.521Z,58.53
2023-01-23T17:20:04.406Z,64.93
2023-01-23T17:22:38.150Z,57.17
2023-01-23T17:25:13.632Z,65.43
2023-01-23T17:27:45.540Z,65.88
2023-01-23T17:30:25.235Z,64.15
2023-01-23T17:32:57.973Z,63.63
2023-01-23T17:35:34.275Z,64.07
2023-01-23T17:38:02.408Z,66.00
2023-01-23T17:40:30.196Z,62.00
2023-01-23T17:42:58.073Z,71.43
2023-01-23T17:45:27.416Z,68.38
2023-01-23T17:47:55.801Z,72.10
2023-01-23T17:50:25.615Z,71.90
2023-01-23T17:52:55.264Z,71.50
2023-01-23T17:55:28.340Z,72.50
2023-01-23T17:57:55.841Z,73.15
2023-01-23T18:00:24.640Z,69.35
2023-01-23T18:02:59.762Z,77.32
2023-01-23T18:05:27.708Z,76.28
2023-01-23T18:07:55.166Z,73.03
2023-01-23T18:10:28.282Z,76.43
2023-01-23T18:13:17.158Z,78.30
2023-01-23T18:16:06.052Z,69.45
2023-01-23T18:18:37.089Z,67.80
2023-01-23T18:21:07.357Z,69.53
2023-01-23T18:23:37.241Z,62.78
2023-01-23T18:26:20.264Z,65.63
2023-01-23T18:29:20.479Z,82.45
2023-01-23T18:31:53.842Z,64.57
2023-01-23T18:34:36.864Z,66.47
2023-01-23T18:37:18.765Z,64.95
2023-01-23T18:40:19.212Z,69.65
2023-01-23T18:43:17.207Z,67.75
2023-01-23T18:45:44.883Z,65.15
2023-01-23T18:48:24.977Z,62.17
2023-01-23T18:51:19.116Z,66.40
2023-01-23T18:54:21.589Z,56.30
2023-01-23T18:57:23.885Z,56.63
2023-01-23T19:00:14.554Z,53.88
2023-01-23T19:02:52.324Z,49.05
2023-01-23T19:05:27.961Z,53.85
2023-01-23T19:07:56.432Z,44.63
2023-01-23T19:10:32.483Z,58.10
2023-01-23T19:13:29.772Z,58.10
2023-01-23T19:16:03.510Z,43.80
2023-01-23T19:18:47.286Z,48.10
2023-01-23T19:21:14.769Z,47.67
2023-01-23T19:23:47.500Z,51.78
2023-01-23T19:26:16.461Z,40.40
2023-01-23T19:28:44.561Z,52.00
2023-01-23T19:33:49.908Z,48.72
2023-01-23T19:36:17.901Z,45.88
2023-01-23T19:38:48.434Z,53.90
2023-01-23T19:41:19.501Z,57.60
2023-01-23T19:43:54.984Z,56.47
2023-01-23T19:46:28.143Z,51.17
2023-01-23T19:48:57.207Z,63.67
2023-01-23T19:51:28.938Z,54.90
2023-01-23T19:53:56.459Z,55.05
2023-01-23T19:56:24.005Z,61.88
2023-01-23T19:58:51.434Z,53.28
2023-01-23T20:01:45.490Z,60.45
2023-01-23T20:04:16.040Z,56.67
2023-01-23T20:06:45.568Z,55.97
2023-01-23T20:09:17.538Z,53.63
2023-01-23T20:11:46.830Z,49.70
2023-01-23T20:14:14.439Z,57.35
2023-01-23T20:16:43.296Z,49.83
2023-01-23T20:19:14.430Z,47.25
2023-01-23T20:21:42.452Z,50.88
2023-01-23T20:26:38.044Z,42.42
2023-01-23T20:29:07.101Z,48.00
2023-01-23T20:31:35.757Z,55.83
2023-01-23T20:34:03.824Z,51.83
2023-01-23T20:36:31.383Z,49.80
2023-01-23T20:38:58.864Z,48.20
2023-01-23T20:41:26.353Z,48.10
2023-01-23T20:43:53.847Z,50.38
2023-01-23T20:46:21.478Z,47.45
2023-01-23T20:48:49.139Z,44.42
2023-01-23T20:51:17.422Z,59.83
2023-01-23T20:53:45.593Z,50.47
2023-01-23T20:56:27.357Z,60.00
2023-01-23T20:59:14.703Z,56.58
2023-01-23T21:02:14.602Z,56.85
2023-01-23T21:04:42.425Z,55.13
2023-01-23T21:07:09.917Z,61.45
2023-01-23T21:09:37.420Z,61.50
2023-01-23T21:12:05.676Z,57.38
2023-01-23T21:14:33.221Z,67.05
2023-01-23T21:17:00.804Z,59.45
2023-01-23T21:19:28.768Z,62.70
2023-01-23T21:21:56.344Z,59.55
2023-01-23T21:24:24.197Z,60.92
2023-01-23T21:26:52.442Z,65.70
2023-01-23T21:29:19.882Z,57.53
2023-01-23T21:31:49.831Z,56.95
2023-01-23T21:34:17.436Z,56.33
2023-01-23T21:36:45.103Z,69.40
2023-01-23T21:39:14.735Z,62.72
2023-01-23T21:41:42.512Z,68.43
2023-01-23T21:44:11.431Z,62.75
2023-01-23T21:46:39.070Z,74.75
2023-01-23T21:49:06.649Z,72.60
2023-01-23T21:51:34.540Z,66.93
2023-01-23T21:54:02.158Z,69.75
2023-01-23T21:56:29.554Z,66.03
2023-01-23T21:58:59.126Z,68.90
2023-01-23T22:01:33.449Z,70.63
2023-01-23T22:04:07.027Z,70.63
2023-01-23T22:06:36.958Z,64.15
2023-01-23T22:09:06.047Z,80.65
2023-01-23T22:11:33.911Z,72.30
2023-01-23T22:14:01.774Z,68.03
2023-01-23T22:16:47.031Z,78.20
2023-01-23T22:19:25.118Z,75.75
2023-01-23T22:21:54.777Z,74.40
2023-01-23T22:24:22.511Z,71.47
2023-01-23T22:26:50.112Z,68.45
2023-01-23T22:29:18.140Z,71.75
2023-01-23T22:34:14.183Z,62.58
2023-01-23T22:36:41.629Z,64.00
2023-01-23T22:39:11.640Z,62.40
2023-01-23T22:41:39.070Z,82.53
2023-01-23T22:44:06.563Z,78.07
2023-01-23T22:46:34.106Z,85.60
2023-01-23T22:49:01.700Z,83.80
2023-01-23T22:51:29.253Z,77.07
2023-01-23T22:53:58.070Z,87.25
2023-01-23T22:56:27.253Z,96.32
2023-01-23T22:58:56.056Z,84.78
2023-01-23T23:01:24.600Z,92.80
2023-01-23T23:03:52.225Z,88.50
2023-01-23T23:06:20.390Z,96.03
2023-01-23T23:08:48.746Z,90.85
2023-01-23T23:11:19.937Z,94.47
2023-01-23T23:13:48.240Z,89.40
2023-01-23T23:16:24.688Z,87.90
2023-01-23T23:18:54.833Z,86.57
2023-01-23T23:21:25.264Z,72.15
2023-01-23T23:23:57.847Z,72.68
2023-01-23T23:26:27.556Z,66.80
2023-01-23T23:28:56.203Z,63.05
2023-01-23T23:31:24.107Z,62.55
2023-01-23T23:33:52.111Z,60.13
2023-01-23T23:36:19.789Z,62.72
2023-01-23T23:38:47.389Z,61.03
2023-01-23T23:41:15.967Z,61.65
2023-01-23T23:43:44.095Z,58.58
2023-01-23T23:48:39.735Z,63.75
2023-01-23T23:51:09.269Z,65.68
2023-01-23T23:53:36.905Z,60.25
2023-01-23T23:56:05.869Z,57.63
2023-01-23T23:58:36.334Z,56.88
